sensor_id;sensor_type;location;lat;lon;timestamp;P1;durP1;ratioP1;P2;durP2;ratioP2
52480;SDS011;38393;52.404;13.532;2023-04-25T00:01:54;6.60;;;3.43;;
52480;SDS011;38393;52.404;13.532;2023-04-25T00:04:21;4.77;;;3.43;;
52480;SDS011;38393;52.404;13.532;2023-04-25T00:06:46;5.77;;;3.40;;
52480;SDS011;38393;52.404;13.532;2023-04-25T00:09:12;6.37;;;3.30;;
52480;SDS011;38393;52.404;13.532;2023-04-25T00:11:38;5.00;;;3.20;;
52480;SDS011;38393;52.404;13.532;2023-04-25T00:14:04;7.50;;;2.83;;
52480;SDS011;38393;52.404;13.532;2023-04-25T00:16:29;7.17;;;3.23;;
52480;SDS011;38393;52.404;13.532;2023-04-25T00:18:58;7.63;;;3.20;;
52480;SDS011;38393;52.404;13.532;2023-04-25T00:21:24;6.73;;;2.50;;
52480;SDS011;38393;52.404;13.532;2023-04-25T00:23:50;5.70;;;2.70;;
52480;SDS011;38393;52.404;13.532;2023-04-25T00:26:17;7.37;;;3.00;;
52480;SDS011;38393;52.404;13.532;2023-04-25T00:28:43;7.13;;;2.90;;
52480;SDS011;38393;52.404;13.532;2023-04-25T00:31:08;7.67;;;2.87;;
52480;SDS011;38393;52.404;13.532;2023-04-25T00:33:34;4.70;;;2.63;;
52480;SDS011;38393;52.404;13.532;2023-04-25T00:35:59;7.50;;;3.10;;
52480;SDS011;38393;52.404;13.532;2023-04-25T00:38:25;6.97;;;2.90;;
52480;SDS011;38393;52.404;13.532;2023-04-25T00:40:50;11.33;;;7.83;;
52480;SDS011;38393;52.404;13.532;2023-04-25T00:43:17;5.60;;;2.90;;
52480;SDS011;38393;52.404;13.532;2023-04-25T00:45:43;6.93;;;3.03;;
52480;SDS011;38393;52.404;13.532;2023-04-25T00:48:11;6.60;;;3.20;;
52480;SDS011;38393;52.404;13.532;2023-04-25T00:50:38;5.07;;;2.87;;
52480;SDS011;38393;52.404;13.532;2023-04-25T00:53:04;6.43;;;3.23;;
52480;SDS011;38393;52.404;13.532;2023-04-25T00:55:30;7.00;;;3.10;;
52480;SDS011;38393;52.404;13.532;2023-04-25T00:57:56;7.33;;;3.07;;
52480;SDS011;38393;52.404;13.532;2023-04-25T01:00:22;10.13;;;3.57;;
52480;SDS011;38393;52.404;13.532;2023-04-25T01:02:48;7.47;;;3.20;;
52480;SDS011;38393;52.404;13.532;2023-04-25T01:05:14;8.73;;;3.27;;
52480;SDS011;38393;52.404;13.532;2023-04-25T01:07:40;6.20;;;3.27;;
52480;SDS011;38393;52.404;13.532;2023-04-25T01:10:06;6.53;;;3.50;;
52480;SDS011;38393;52.404;13.532;2023-04-25T01:12:32;7.53;;;3.53;;
52480;SDS011;38393;52.404;13.532;2023-04-25T01:14:57;8.70;;;3.80;;
52480;SDS011;38393;52.404;13.532;2023-04-25T01:17:23;7.53;;;3.40;;
52480;SDS011;38393;52.404;13.532;2023-04-25T01:19:49;9.27;;;3.60;;
52480;SDS011;38393;52.404;13.532;2023-04-25T01:22:15;8.57;;;3.83;;
52480;SDS011;38393;52.404;13.532;2023-04-25T01:24:41;6.50;;;3.20;;
52480;SDS011;38393;52.404;13.532;2023-04-25T01:27:07;8.63;;;3.97;;
52480;SDS011;38393;52.404;13.532;2023-04-25T01:29:34;8.13;;;3.50;;
52480;SDS011;38393;52.404;13.532;2023-04-25T01:32:00;9.83;;;3.70;;
52480;SDS011;38393;52.404;13.532;2023-04-25T01:34:26;9.83;;;3.77;;
52480;SDS011;38393;52.404;13.532;2023-04-25T01:36:52;7.67;;;3.37;;
52480;SDS011;38393;52.404;13.532;2023-04-25T01:39:18;6.63;;;3.37;;
52480;SDS011;38393;52.404;13.532;2023-04-25T01:41:45;6.13;;;3.50;;
52480;SDS011;38393;52.404;13.532;2023-04-25T01:44:12;11.43;;;4.33;;
52480;SDS011;38393;52.404;13.532;2023-04-25T01:46:38;7.40;;;3.77;;
52480;SDS011;38393;52.404;13.532;2023-04-25T01:49:04;9.00;;;3.90;;
52480;SDS011;38393;52.404;13.532;2023-04-25T01:51:29;8.90;;;3.60;;
52480;SDS011;38393;52.404;13.532;2023-04-25T01:53:55;6.97;;;3.40;;
52480;SDS011;38393;52.404;13.532;2023-04-25T01:56:21;10.03;;;3.77;;
52480;SDS011;38393;52.404;13.532;2023-04-25T01:58:47;7.33;;;3.67;;
52480;SDS011;38393;52.404;13.532;2023-04-25T02:01:13;13.23;;;4.10;;
52480;SDS011;38393;52.404;13.532;2023-04-25T02:03:39;7.20;;;4.00;;
52480;SDS011;38393;52.404;13.532;2023-04-25T02:06:04;5.97;;;3.50;;
52480;SDS011;38393;52.404;13.532;2023-04-25T02:08:30;12.00;;;4.33;;
52480;SDS011;38393;52.404;13.532;2023-04-25T02:10:56;8.20;;;3.63;;
52480;SDS011;38393;52.404;13.532;2023-04-25T02:13:22;13.93;;;4.20;;
52480;SDS011;38393;52.404;13.532;2023-04-25T02:15:47;7.67;;;3.90;;
52480;SDS011;38393;52.404;13.532;2023-04-25T02:18:12;8.47;;;4.40;;
52480;SDS011;38393;52.404;13.532;2023-04-25T02:20:40;7.47;;;4.07;;
52480;SDS011;38393;52.404;13.532;2023-04-25T02:23:06;9.50;;;4.10;;
52480;SDS011;38393;52.404;13.532;2023-04-25T02:25:32;9.77;;;4.00;;
52480;SDS011;38393;52.404;13.532;2023-04-25T02:27:57;9.67;;;4.20;;
52480;SDS011;38393;52.404;13.532;2023-04-25T02:30:22;7.90;;;4.00;;
52480;SDS011;38393;52.404;13.532;2023-04-25T02:32:48;10.70;;;4.00;;
52480;SDS011;38393;52.404;13.532;2023-04-25T02:35:13;7.67;;;4.20;;
52480;SDS011;38393;52.404;13.532;2023-04-25T02:37:39;9.53;;;4.60;;
52480;SDS011;38393;52.404;13.532;2023-04-25T02:40:05;8.13;;;4.27;;
52480;SDS011;38393;52.404;13.532;2023-04-25T02:42:32;10.60;;;4.37;;
52480;SDS011;38393;52.404;13.532;2023-04-25T02:44:57;6.93;;;3.93;;
52480;SDS011;38393;52.404;13.532;2023-04-25T02:47:23;11.57;;;4.80;;
52480;SDS011;38393;52.404;13.532;2023-04-25T02:49:48;6.20;;;4.10;;
52480;SDS011;38393;52.404;13.532;2023-04-25T02:52:14;7.43;;;4.13;;
52480;SDS011;38393;52.404;13.532;2023-04-25T02:54:40;8.33;;;4.43;;
52480;SDS011;38393;52.404;13.532;2023-04-25T02:57:05;9.80;;;4.20;;
52480;SDS011;38393;52.404;13.532;2023-04-25T02:59:31;8.90;;;4.23;;
52480;SDS011;38393;52.404;13.532;2023-04-25T03:01:57;7.17;;;4.00;;
52480;SDS011;38393;52.404;13.532;2023-04-25T03:04:23;8.20;;;4.60;;
52480;SDS011;38393;52.404;13.532;2023-04-25T03:06:51;9.40;;;4.13;;
52480;SDS011;38393;52.404;13.532;2023-04-25T03:09:18;7.43;;;4.53;;
52480;SDS011;38393;52.404;13.532;2023-04-25T03:11:44;9.17;;;4.40;;
52480;SDS011;38393;52.404;13.532;2023-04-25T03:14:10;9.43;;;4.87;;
52480;SDS011;38393;52.404;13.532;2023-04-25T03:16:36;11.07;;;4.77;;
52480;SDS011;38393;52.404;13.532;2023-04-25T03:19:02;9.03;;;4.50;;
52480;SDS011;38393;52.404;13.532;2023-04-25T03:21:28;9.27;;;4.80;;
52480;SDS011;38393;52.404;13.532;2023-04-25T03:23:53;9.90;;;5.07;;
52480;SDS011;38393;52.404;13.532;2023-04-25T03:26:19;10.87;;;4.90;;
52480;SDS011;38393;52.404;13.532;2023-04-25T03:28:45;9.47;;;4.67;;
52480;SDS011;38393;52.404;13.532;2023-04-25T03:31:10;9.33;;;5.30;;
52480;SDS011;38393;52.404;13.532;2023-04-25T03:33:36;12.60;;;5.23;;
52480;SDS011;38393;52.404;13.532;2023-04-25T03:36:01;6.87;;;4.50;;
52480;SDS011;38393;52.404;13.532;2023-04-25T03:38:27;11.43;;;4.77;;
52480;SDS011;38393;52.404;13.532;2023-04-25T03:40:53;9.53;;;4.83;;
52480;SDS011;38393;52.404;13.532;2023-04-25T03:43:19;12.77;;;5.27;;
52480;SDS011;38393;52.404;13.532;2023-04-25T03:45:44;11.47;;;4.73;;
52480;SDS011;38393;52.404;13.532;2023-04-25T03:48:11;11.23;;;5.00;;
52480;SDS011;38393;52.404;13.532;2023-04-25T03:50:36;9.60;;;5.00;;
52480;SDS011;38393;52.404;13.532;2023-04-25T03:53:02;7.73;;;4.33;;
52480;SDS011;38393;52.404;13.532;2023-04-25T03:55:27;12.33;;;5.03;;
52480;SDS011;38393;52.404;13.532;2023-04-25T03:57:53;9.20;;;4.63;;
52480;SDS011;38393;52.404;13.532;2023-04-25T04:00:18;11.30;;;4.70;;
52480;SDS011;38393;52.404;13.532;2023-04-25T04:02:44;9.50;;;4.47;;
52480;SDS011;38393;52.404;13.532;2023-04-25T04:05:09;10.53;;;4.80;;
52480;SDS011;38393;52.404;13.532;2023-04-25T04:07:35;10.57;;;5.20;;
52480;SDS011;38393;52.404;13.532;2023-04-25T04:10:05;10.17;;;5.40;;
52480;SDS011;38393;52.404;13.532;2023-04-25T04:12:34;12.20;;;4.60;;
52480;SDS011;38393;52.404;13.532;2023-04-25T04:15:00;10.07;;;5.03;;
52480;SDS011;38393;52.404;13.532;2023-04-25T04:17:27;10.33;;;4.87;;
52480;SDS011;38393;52.404;13.532;2023-04-25T04:19:53;14.23;;;5.43;;
52480;SDS011;38393;52.404;13.532;2023-04-25T04:22:18;9.70;;;5.00;;
52480;SDS011;38393;52.404;13.532;2023-04-25T04:24:44;8.50;;;4.50;;
52480;SDS011;38393;52.404;13.532;2023-04-25T04:27:11;10.73;;;4.93;;
52480;SDS011;38393;52.404;13.532;2023-04-25T04:29:37;10.33;;;5.00;;
52480;SDS011;38393;52.404;13.532;2023-04-25T04:32:03;8.37;;;4.90;;
52480;SDS011;38393;52.404;13.532;2023-04-25T04:34:29;11.50;;;4.90;;
52480;SDS011;38393;52.404;13.532;2023-04-25T04:36:55;12.53;;;5.20;;
52480;SDS011;38393;52.404;13.532;2023-04-25T04:39:21;10.80;;;5.60;;
52480;SDS011;38393;52.404;13.532;2023-04-25T04:41:47;13.27;;;5.50;;
52480;SDS011;38393;52.404;13.532;2023-04-25T04:44:12;9.87;;;4.90;;
52480;SDS011;38393;52.404;13.532;2023-04-25T04:46:39;9.03;;;5.30;;
52480;SDS011;38393;52.404;13.532;2023-04-25T04:49:05;14.17;;;5.70;;
52480;SDS011;38393;52.404;13.532;2023-04-25T04:51:31;12.00;;;5.37;;
52480;SDS011;38393;52.404;13.532;2023-04-25T04:53:56;9.77;;;5.40;;
52480;SDS011;38393;52.404;13.532;2023-04-25T04:56:23;12.63;;;5.70;;
52480;SDS011;38393;52.404;13.532;2023-04-25T04:58:50;11.10;;;5.33;;
52480;SDS011;38393;52.404;13.532;2023-04-25T05:01:15;13.20;;;5.90;;
52480;SDS011;38393;52.404;13.532;2023-04-25T05:03:41;12.07;;;5.43;;
52480;SDS011;38393;52.404;13.532;2023-04-25T05:06:06;10.07;;;5.33;;
52480;SDS011;38393;52.404;13.532;2023-04-25T05:08:33;15.47;;;5.80;;
52480;SDS011;38393;52.404;13.532;2023-04-25T05:10:59;11.23;;;6.17;;
52480;SDS011;38393;52.404;13.532;2023-04-25T05:13:24;12.33;;;6.03;;
52480;SDS011;38393;52.404;13.532;2023-04-25T05:15:50;12.37;;;5.70;;
52480;SDS011;38393;52.404;13.532;2023-04-25T05:18:15;11.40;;;5.20;;
52480;SDS011;38393;52.404;13.532;2023-04-25T05:20:41;13.20;;;5.83;;
52480;SDS011;38393;52.404;13.532;2023-04-25T05:23:06;12.50;;;5.67;;
52480;SDS011;38393;52.404;13.532;2023-04-25T05:25:32;11.07;;;5.90;;
52480;SDS011;38393;52.404;13.532;2023-04-25T05:27:58;14.73;;;5.93;;
52480;SDS011;38393;52.404;13.532;2023-04-25T05:30:23;12.50;;;5.80;;
52480;SDS011;38393;52.404;13.532;2023-04-25T05:32:49;11.87;;;5.73;;
52480;SDS011;38393;52.404;13.532;2023-04-25T05:35:15;15.23;;;6.03;;
52480;SDS011;38393;52.404;13.532;2023-04-25T05:37:40;12.53;;;5.93;;
52480;SDS011;38393;52.404;13.532;2023-04-25T05:40:06;15.30;;;5.10;;
52480;SDS011;38393;52.404;13.532;2023-04-25T05:42:32;7.53;;;5.30;;
52480;SDS011;38393;52.404;13.532;2023-04-25T05:44:57;13.33;;;5.70;;
52480;SDS011;38393;52.404;13.532;2023-04-25T05:47:23;10.40;;;5.70;;
52480;SDS011;38393;52.404;13.532;2023-04-25T05:49:48;12.27;;;5.50;;
52480;SDS011;38393;52.404;13.532;2023-04-25T05:52:14;14.33;;;5.40;;
52480;SDS011;38393;52.404;13.532;2023-04-25T05:54:40;14.50;;;5.60;;
52480;SDS011;38393;52.404;13.532;2023-04-25T05:57:06;10.93;;;5.90;;
52480;SDS011;38393;52.404;13.532;2023-04-25T05:59:31;11.53;;;6.17;;
52480;SDS011;38393;52.404;13.532;2023-04-25T06:01:57;11.17;;;5.57;;
52480;SDS011;38393;52.404;13.532;2023-04-25T06:04:22;13.40;;;5.90;;
52480;SDS011;38393;52.404;13.532;2023-04-25T06:06:48;12.30;;;5.80;;
52480;SDS011;38393;52.404;13.532;2023-04-25T06:09:13;12.33;;;5.60;;
52480;SDS011;38393;52.404;13.532;2023-04-25T06:11:38;11.80;;;5.70;;
52480;SDS011;38393;52.404;13.532;2023-04-25T06:14:05;11.50;;;5.57;;
52480;SDS011;38393;52.404;13.532;2023-04-25T06:16:31;13.53;;;5.63;;
52480;SDS011;38393;52.404;13.532;2023-04-25T06:18:56;10.63;;;5.87;;
52480;SDS011;38393;52.404;13.532;2023-04-25T06:21:21;12.80;;;5.67;;
52480;SDS011;38393;52.404;13.532;2023-04-25T06:23:47;12.00;;;5.90;;
52480;SDS011;38393;52.404;13.532;2023-04-25T06:26:12;10.67;;;5.67;;
52480;SDS011;38393;52.404;13.532;2023-04-25T06:28:38;13.97;;;6.23;;
52480;SDS011;38393;52.404;13.532;2023-04-25T06:31:04;11.83;;;5.63;;
52480;SDS011;38393;52.404;13.532;2023-04-25T06:33:29;13.00;;;6.10;;
52480;SDS011;38393;52.404;13.532;2023-04-25T06:35:55;12.50;;;5.83;;
52480;SDS011;38393;52.404;13.532;2023-04-25T06:38:20;10.93;;;5.97;;
52480;SDS011;38393;52.404;13.532;2023-04-25T06:40:46;14.10;;;6.63;;
52480;SDS011;38393;52.404;13.532;2023-04-25T06:43:11;11.03;;;5.57;;
52480;SDS011;38393;52.404;13.532;2023-04-25T06:45:37;13.67;;;6.00;;
52480;SDS011;38393;52.404;13.532;2023-04-25T06:48:02;13.93;;;6.10;;
52480;SDS011;38393;52.404;13.532;2023-04-25T06:50:28;11.33;;;5.90;;
52480;SDS011;38393;52.404;13.532;2023-04-25T06:52:53;13.33;;;5.77;;
52480;SDS011;38393;52.404;13.532;2023-04-25T06:55:19;12.67;;;5.93;;
52480;SDS011;38393;52.404;13.532;2023-04-25T06:57:44;15.03;;;5.97;;
52480;SDS011;38393;52.404;13.532;2023-04-25T07:00:10;9.03;;;5.20;;
52480;SDS011;38393;52.404;13.532;2023-04-25T07:02:36;12.40;;;5.80;;
52480;SDS011;38393;52.404;13.532;2023-04-25T07:05:02;11.97;;;6.10;;
52480;SDS011;38393;52.404;13.532;2023-04-25T07:07:29;14.50;;;5.80;;
52480;SDS011;38393;52.404;13.532;2023-04-25T07:09:57;15.43;;;6.60;;
52480;SDS011;38393;52.404;13.532;2023-04-25T07:12:23;12.93;;;6.30;;
52480;SDS011;38393;52.404;13.532;2023-04-25T07:14:48;14.40;;;6.27;;
52480;SDS011;38393;52.404;13.532;2023-04-25T07:17:13;12.23;;;5.77;;
52480;SDS011;38393;52.404;13.532;2023-04-25T07:19:40;16.10;;;6.00;;
52480;SDS011;38393;52.404;13.532;2023-04-25T07:22:06;12.40;;;5.43;;
52480;SDS011;38393;52.404;13.532;2023-04-25T07:24:31;12.97;;;5.57;;
52480;SDS011;38393;52.404;13.532;2023-04-25T07:26:57;16.10;;;5.43;;
52480;SDS011;38393;52.404;13.532;2023-04-25T07:29:23;13.10;;;5.40;;
52480;SDS011;38393;52.404;13.532;2023-04-25T07:31:48;9.73;;;4.73;;
52480;SDS011;38393;52.404;13.532;2023-04-25T07:34:14;14.13;;;5.23;;
52480;SDS011;38393;52.404;13.532;2023-04-25T07:36:40;9.00;;;4.60;;
52480;SDS011;38393;52.404;13.532;2023-04-25T07:39:06;9.83;;;4.90;;
52480;SDS011;38393;52.404;13.532;2023-04-25T07:41:31;10.03;;;4.23;;
52480;SDS011;38393;52.404;13.532;2023-04-25T07:43:57;8.47;;;4.43;;
52480;SDS011;38393;52.404;13.532;2023-04-25T07:46:22;10.13;;;4.10;;
52480;SDS011;38393;52.404;13.532;2023-04-25T07:48:48;9.17;;;4.33;;
52480;SDS011;38393;52.404;13.532;2023-04-25T07:51:14;7.67;;;4.23;;
52480;SDS011;38393;52.404;13.532;2023-04-25T07:53:39;11.70;;;5.03;;
52480;SDS011;38393;52.404;13.532;2023-04-25T07:56:05;12.40;;;5.00;;
52480;SDS011;38393;52.404;13.532;2023-04-25T07:58:31;11.43;;;5.10;;
52480;SDS011;38393;52.404;13.532;2023-04-25T08:00:56;12.50;;;5.33;;
52480;SDS011;38393;52.404;13.532;2023-04-25T08:03:22;15.37;;;4.90;;
52480;SDS011;38393;52.404;13.532;2023-04-25T08:05:47;9.60;;;4.60;;
52480;SDS011;38393;52.404;13.532;2023-04-25T08:08:13;10.63;;;4.87;;
52480;SDS011;38393;52.404;13.532;2023-04-25T08:10:38;13.30;;;4.97;;
52480;SDS011;38393;52.404;13.532;2023-04-25T08:13:04;14.63;;;5.00;;
52480;SDS011;38393;52.404;13.532;2023-04-25T08:15:29;13.97;;;4.77;;
52480;SDS011;38393;52.404;13.532;2023-04-25T08:17:55;14.83;;;5.20;;
52480;SDS011;38393;52.404;13.532;2023-04-25T08:20:20;13.67;;;4.73;;
52480;SDS011;38393;52.404;13.532;2023-04-25T08:22:46;13.57;;;4.60;;
52480;SDS011;38393;52.404;13.532;2023-04-25T08:25:13;11.53;;;4.80;;
52480;SDS011;38393;52.404;13.532;2023-04-25T08:27:39;13.50;;;4.97;;
52480;SDS011;38393;52.404;13.532;2023-04-25T08:30:04;19.87;;;5.30;;
52480;SDS011;38393;52.404;13.532;2023-04-25T08:32:30;22.07;;;5.30;;
52480;SDS011;38393;52.404;13.532;2023-04-25T08:34:56;16.43;;;4.97;;
52480;SDS011;38393;52.404;13.532;2023-04-25T08:37:21;13.90;;;4.67;;
52480;SDS011;38393;52.404;13.532;2023-04-25T08:39:47;16.10;;;4.30;;
52480;SDS011;38393;52.404;13.532;2023-04-25T08:42:17;12.43;;;4.20;;
52480;SDS011;38393;52.404;13.532;2023-04-25T08:44:43;13.03;;;4.77;;
52480;SDS011;38393;52.404;13.532;2023-04-25T08:47:10;14.00;;;4.53;;
52480;SDS011;38393;52.404;13.532;2023-04-25T08:49:35;15.30;;;4.23;;
52480;SDS011;38393;52.404;13.532;2023-04-25T08:52:04;15.83;;;4.63;;
52480;SDS011;38393;52.404;13.532;2023-04-25T08:54:31;17.73;;;4.13;;
52480;SDS011;38393;52.404;13.532;2023-04-25T08:56:57;17.97;;;4.43;;
52480;SDS011;38393;52.404;13.532;2023-04-25T08:59:29;15.47;;;3.70;;
52480;SDS011;38393;52.404;13.532;2023-04-25T09:01:55;14.20;;;3.80;;
52480;SDS011;38393;52.404;13.532;2023-04-25T09:04:21;16.73;;;4.13;;
52480;SDS011;38393;52.404;13.532;2023-04-25T09:06:47;17.13;;;3.83;;
52480;SDS011;38393;52.404;13.532;2023-04-25T09:09:12;11.87;;;3.13;;
52480;SDS011;38393;52.404;13.532;2023-04-25T09:11:38;9.80;;;3.00;;
52480;SDS011;38393;52.404;13.532;2023-04-25T09:14:15;17.33;;;3.53;;
52480;SDS011;38393;52.404;13.532;2023-04-25T09:16:57;10.00;;;2.90;;
52480;SDS011;38393;52.404;13.532;2023-04-25T09:19:45;16.33;;;3.30;;
52480;SDS011;38393;52.404;13.532;2023-04-25T09:22:10;12.17;;;3.73;;
52480;SDS011;38393;52.404;13.532;2023-04-25T09:24:37;11.60;;;3.00;;
52480;SDS011;38393;52.404;13.532;2023-04-25T09:27:08;9.27;;;3.17;;
52480;SDS011;38393;52.404;13.532;2023-04-25T09:29:36;11.97;;;2.90;;
52480;SDS011;38393;52.404;13.532;2023-04-25T09:32:21;12.20;;;2.97;;
52480;SDS011;38393;52.404;13.532;2023-04-25T09:34:49;12.60;;;3.30;;
52480;SDS011;38393;52.404;13.532;2023-04-25T09:37:26;13.67;;;3.13;;
52480;SDS011;38393;52.404;13.532;2023-04-25T09:39:54;9.30;;;2.60;;
52480;SDS011;38393;52.404;13.532;2023-04-25T09:42:25;14.63;;;2.60;;
52480;SDS011;38393;52.404;13.532;2023-04-25T09:44:53;10.20;;;3.07;;
52480;SDS011;38393;52.404;13.532;2023-04-25T09:47:20;14.30;;;2.97;;
52480;SDS011;38393;52.404;13.532;2023-04-25T09:49:48;16.77;;;3.60;;
52480;SDS011;38393;52.404;13.532;2023-04-25T09:52:15;11.93;;;2.90;;
52480;SDS011;38393;52.404;13.532;2023-04-25T09:54:42;14.07;;;3.17;;
52480;SDS011;38393;52.404;13.532;2023-04-25T09:57:11;13.33;;;2.90;;
52480;SDS011;38393;52.404;13.532;2023-04-25T09:59:43;10.37;;;3.00;;
52480;SDS011;38393;52.404;13.532;2023-04-25T10:02:11;13.33;;;3.43;;
52480;SDS011;38393;52.404;13.532;2023-04-25T10:04:37;15.77;;;3.40;;
52480;SDS011;38393;52.404;13.532;2023-04-25T10:07:07;14.37;;;3.60;;
52480;SDS011;38393;52.404;13.532;2023-04-25T10:09:33;15.97;;;3.30;;
52480;SDS011;38393;52.404;13.532;2023-04-25T10:12:04;13.00;;;3.20;;
52480;SDS011;38393;52.404;13.532;2023-04-25T10:14:32;14.17;;;3.30;;
52480;SDS011;38393;52.404;13.532;2023-04-25T10:16:58;21.80;;;3.33;;
52480;SDS011;38393;52.404;13.532;2023-04-25T10:19:24;15.07;;;3.00;;
52480;SDS011;38393;52.404;13.532;2023-04-25T10:21:52;15.23;;;2.83;;
52480;SDS011;38393;52.404;13.532;2023-04-25T10:24:29;8.67;;;2.97;;
52480;SDS011;38393;52.404;13.532;2023-04-25T10:26:55;11.03;;;2.77;;
52480;SDS011;38393;52.404;13.532;2023-04-25T10:29:23;14.77;;;3.50;;
52480;SDS011;38393;52.404;13.532;2023-04-25T10:31:49;12.70;;;3.20;;
52480;SDS011;38393;52.404;13.532;2023-04-25T10:34:15;14.00;;;2.90;;
52480;SDS011;38393;52.404;13.532;2023-04-25T10:36:41;9.73;;;2.87;;
52480;SDS011;38393;52.404;13.532;2023-04-25T10:39:07;9.53;;;2.80;;
52480;SDS011;38393;52.404;13.532;2023-04-25T10:42:18;11.07;;;3.07;;
52480;SDS011;38393;52.404;13.532;2023-04-25T10:44:30;14.47;;;2.80;;
52480;SDS011;38393;52.404;13.532;2023-04-25T10:46:56;14.63;;;2.97;;
52480;SDS011;38393;52.404;13.532;2023-04-25T10:49:30;9.63;;;2.97;;
52480;SDS011;38393;52.404;13.532;2023-04-25T10:52:13;11.70;;;2.60;;
52480;SDS011;38393;52.404;13.532;2023-04-25T10:55:02;10.77;;;2.57;;
52480;SDS011;38393;52.404;13.532;2023-04-25T10:59:57;11.50;;;2.60;;
52480;SDS011;38393;52.404;13.532;2023-04-25T11:02:29;12.00;;;2.60;;
52480;SDS011;38393;52.404;13.532;2023-04-25T11:04:55;14.17;;;3.13;;
52480;SDS011;38393;52.404;13.532;2023-04-25T11:10:13;8.70;;;2.50;;
52480;SDS011;38393;52.404;13.532;2023-04-25T11:12:39;12.70;;;3.20;;
52480;SDS011;38393;52.404;13.532;2023-04-25T11:15:05;13.13;;;3.20;;
52480;SDS011;38393;52.404;13.532;2023-04-25T11:17:32;9.30;;;2.63;;
52480;SDS011;38393;52.404;13.532;2023-04-25T11:19:58;9.70;;;2.60;;
52480;SDS011;38393;52.404;13.532;2023-04-25T11:22:23;12.90;;;2.67;;
52480;SDS011;38393;52.404;13.532;2023-04-25T11:24:49;13.07;;;2.80;;
52480;SDS011;38393;52.404;13.532;2023-04-25T11:27:15;7.23;;;2.60;;
52480;SDS011;38393;52.404;13.532;2023-04-25T11:29:41;11.40;;;2.80;;
52480;SDS011;38393;52.404;13.532;2023-04-25T11:32:06;5.40;;;2.20;;
52480;SDS011;38393;52.404;13.532;2023-04-25T11:34:33;7.53;;;2.10;;
52480;SDS011;38393;52.404;13.532;2023-04-25T11:36:59;11.77;;;2.90;;
52480;SDS011;38393;52.404;13.532;2023-04-25T11:39:26;11.00;;;2.43;;
52480;SDS011;38393;52.404;13.532;2023-04-25T11:41:53;13.50;;;3.00;;
52480;SDS011;38393;52.404;13.532;2023-04-25T11:44:19;10.30;;;2.97;;
52480;SDS011;38393;52.404;13.532;2023-04-25T11:46:46;11.53;;;2.87;;
52480;SDS011;38393;52.404;13.532;2023-04-25T11:49:12;7.60;;;2.73;;
52480;SDS011;38393;52.404;13.532;2023-04-25T11:51:45;10.77;;;2.63;;
52480;SDS011;38393;52.404;13.532;2023-04-25T11:54:12;11.53;;;2.63;;
52480;SDS011;38393;52.404;13.532;2023-04-25T11:56:41;11.53;;;2.57;;
52480;SDS011;38393;52.404;13.532;2023-04-25T11:59:10;9.53;;;3.07;;
52480;SDS011;38393;52.404;13.532;2023-04-25T12:01:36;14.90;;;2.73;;
52480;SDS011;38393;52.404;13.532;2023-04-25T12:04:16;8.80;;;2.13;;
52480;SDS011;38393;52.404;13.532;2023-04-25T12:06:51;8.20;;;1.97;;
52480;SDS011;38393;52.404;13.532;2023-04-25T12:09:21;10.73;;;2.17;;
52480;SDS011;38393;52.404;13.532;2023-04-25T12:11:54;11.63;;;2.10;;
52480;SDS011;38393;52.404;13.532;2023-04-25T12:14:25;11.47;;;2.43;;
52480;SDS011;38393;52.404;13.532;2023-04-25T12:16:55;6.40;;;2.10;;
52480;SDS011;38393;52.404;13.532;2023-04-25T12:19:22;5.00;;;1.93;;
52480;SDS011;38393;52.404;13.532;2023-04-25T12:21:48;6.57;;;2.20;;
52480;SDS011;38393;52.404;13.532;2023-04-25T12:26:53;9.37;;;2.50;;
52480;SDS011;38393;52.404;13.532;2023-04-25T12:29:27;7.20;;;2.10;;
52480;SDS011;38393;52.404;13.532;2023-04-25T12:31:54;9.70;;;2.30;;
52480;SDS011;38393;52.404;13.532;2023-04-25T12:34:20;12.47;;;2.60;;
52480;SDS011;38393;52.404;13.532;2023-04-25T12:36:47;7.53;;;2.27;;
52480;SDS011;38393;52.404;13.532;2023-04-25T12:41:49;8.80;;;2.20;;
52480;SDS011;38393;52.404;13.532;2023-04-25T12:44:15;7.00;;;2.03;;
52480;SDS011;38393;52.404;13.532;2023-04-25T12:46:41;6.23;;;2.00;;
52480;SDS011;38393;52.404;13.532;2023-04-25T12:49:07;9.17;;;2.27;;
52480;SDS011;38393;52.404;13.532;2023-04-25T12:51:33;11.13;;;2.40;;
52480;SDS011;38393;52.404;13.532;2023-04-25T12:54:03;8.60;;;2.47;;
52480;SDS011;38393;52.404;13.532;2023-04-25T12:56:30;8.00;;;2.40;;
52480;SDS011;38393;52.404;13.532;2023-04-25T12:58:55;10.73;;;2.47;;
52480;SDS011;38393;52.404;13.532;2023-04-25T13:01:22;6.47;;;2.20;;
52480;SDS011;38393;52.404;13.532;2023-04-25T13:03:48;5.63;;;2.00;;
52480;SDS011;38393;52.404;13.532;2023-04-25T13:06:16;4.43;;;2.10;;
52480;SDS011;38393;52.404;13.532;2023-04-25T13:08:43;9.33;;;2.40;;
52480;SDS011;38393;52.404;13.532;2023-04-25T13:11:09;9.13;;;2.50;;
52480;SDS011;38393;52.404;13.532;2023-04-25T13:13:35;9.07;;;2.40;;
52480;SDS011;38393;52.404;13.532;2023-04-25T13:16:01;11.67;;;2.50;;
52480;SDS011;38393;52.404;13.532;2023-04-25T13:18:27;6.40;;;2.53;;
52480;SDS011;38393;52.404;13.532;2023-04-25T13:20:54;7.53;;;2.63;;
52480;SDS011;38393;52.404;13.532;2023-04-25T13:23:19;10.30;;;2.60;;
52480;SDS011;38393;52.404;13.532;2023-04-25T13:25:45;7.47;;;2.13;;
52480;SDS011;38393;52.404;13.532;2023-04-25T13:28:11;9.40;;;2.30;;
52480;SDS011;38393;52.404;13.532;2023-04-25T13:30:37;7.43;;;2.20;;
52480;SDS011;38393;52.404;13.532;2023-04-25T13:33:03;5.93;;;2.00;;
52480;SDS011;38393;52.404;13.532;2023-04-25T13:35:29;5.73;;;1.80;;
52480;SDS011;38393;52.404;13.532;2023-04-25T13:37:55;9.50;;;2.00;;
52480;SDS011;38393;52.404;13.532;2023-04-25T13:40:20;5.70;;;1.83;;
52480;SDS011;38393;52.404;13.532;2023-04-25T13:42:46;5.53;;;1.80;;
52480;SDS011;38393;52.404;13.532;2023-04-25T13:45:11;6.47;;;1.90;;
52480;SDS011;38393;52.404;13.532;2023-04-25T13:47:37;6.93;;;1.90;;
52480;SDS011;38393;52.404;13.532;2023-04-25T13:50:03;5.00;;;1.93;;
52480;SDS011;38393;52.404;13.532;2023-04-25T13:52:30;6.83;;;2.00;;
52480;SDS011;38393;52.404;13.532;2023-04-25T13:54:56;6.20;;;2.10;;
52480;SDS011;38393;52.404;13.532;2023-04-25T13:57:22;7.83;;;2.17;;
52480;SDS011;38393;52.404;13.532;2023-04-25T13:59:48;5.00;;;1.87;;
52480;SDS011;38393;52.404;13.532;2023-04-25T14:02:13;5.67;;;1.83;;
52480;SDS011;38393;52.404;13.532;2023-04-25T14:04:40;6.57;;;2.03;;
52480;SDS011;38393;52.404;13.532;2023-04-25T14:07:05;8.90;;;2.00;;
52480;SDS011;38393;52.404;13.532;2023-04-25T14:09:31;6.97;;;1.97;;
52480;SDS011;38393;52.404;13.532;2023-04-25T14:11:56;7.13;;;2.00;;
52480;SDS011;38393;52.404;13.532;2023-04-25T14:14:22;7.60;;;2.23;;
52480;SDS011;38393;52.404;13.532;2023-04-25T14:16:48;5.27;;;2.10;;
52480;SDS011;38393;52.404;13.532;2023-04-25T14:19:15;6.83;;;2.13;;
52480;SDS011;38393;52.404;13.532;2023-04-25T14:21:43;7.57;;;2.13;;
52480;SDS011;38393;52.404;13.532;2023-04-25T14:24:09;8.13;;;2.33;;
52480;SDS011;38393;52.404;13.532;2023-04-25T14:26:35;11.23;;;3.00;;
52480;SDS011;38393;52.404;13.532;2023-04-25T14:29:01;7.87;;;2.33;;
52480;SDS011;38393;52.404;13.532;2023-04-25T14:31:28;6.43;;;2.63;;
52480;SDS011;38393;52.404;13.532;2023-04-25T14:33:53;7.00;;;2.53;;
52480;SDS011;38393;52.404;13.532;2023-04-25T14:36:19;7.20;;;2.50;;